KFYJ

Middle Peninsula Regional Airport

West Point, Virginia, USA
METAR KFYJ 141630Z AUTO 00000KT 10SM OVC100 07/06 A3037 RMK AO1 T00700055
Observed Flight Rules
Dec-14 @ 16:30 UTC (34 minutes ago) Visual Flight Rules
Visibility Clouds
10 miles
  • Overcast at 10,000' AGL
Temperatures Readings
Current 7°C / 45°F
Dewpoint 6°C / 43°F
Humidity 93%
Altimeter 30.37" Hg
Pressure 1028 hPa
Elevation 7
METAR KFYJ 141630Z AUTO 00000KT 10SM OVC100 07/06 A3037 RMK AO1 T00700055
Observed Flight Rules
Dec-14 @ 16:30 UTC
(34 minutes ago)
VFR
Clouds
  • Overcast at 10,000' AGL
Temperature Dewpoint
7°C / 45°F 6°C / 43°F
Humidity Altimeter Pressure
93% 30.37" Hg 1028 hPa